createdAt,value
2022-10-23T00:01:40.676Z,100.00
2022-10-23T00:04:29.515Z,100.00
2022-10-23T00:07:18.130Z,100.00
2022-10-23T00:10:07.459Z,100.00
2022-10-23T00:12:57.223Z,100.00
2022-10-23T00:15:45.671Z,100.00
2022-10-23T00:18:34.434Z,100.00
2022-10-23T00:21:23.490Z,100.00
2022-10-23T00:24:11.974Z,100.00
2022-10-23T00:27:00.409Z,100.00
2022-10-23T00:29:50.218Z,100.00
2022-10-23T00:32:39.237Z,100.00
2022-10-23T00:35:27.676Z,100.00
2022-10-23T00:38:16.071Z,100.00
2022-10-23T00:41:05.548Z,100.00
2022-10-23T00:44:03.124Z,100.00
2022-10-23T00:46:52.877Z,100.00
2022-10-23T00:49:42.778Z,100.00
2022-10-23T00:52:31.878Z,100.00
2022-10-23T00:55:22.053Z,100.00
2022-10-23T00:58:10.744Z,100.00
2022-10-23T01:00:59.307Z,100.00
2022-10-23T01:03:49.176Z,100.00
2022-10-23T01:06:39.289Z,100.00
2022-10-23T01:09:30.400Z,100.00
2022-10-23T01:12:25.201Z,100.00
2022-10-23T01:15:17.904Z,100.00
2022-10-23T01:18:10.379Z,100.00
2022-10-23T01:21:02.683Z,100.00
2022-10-23T01:24:09.324Z,100.00
2022-10-23T01:27:13.404Z,100.00
2022-10-23T01:30:06.684Z,100.00
2022-10-23T01:32:57.464Z,100.00
2022-10-23T01:35:49.027Z,100.00
2022-10-23T01:38:41.408Z,100.00
2022-10-23T01:41:31.397Z,100.00
2022-10-23T01:44:25.109Z,100.00
2022-10-23T01:47:15.847Z,100.00
2022-10-23T01:50:07.231Z,100.00
2022-10-23T01:52:55.684Z,100.00
2022-10-23T01:55:44.415Z,100.00
2022-10-23T01:58:34.007Z,100.00
2022-10-23T02:01:26.824Z,100.00
2022-10-23T02:04:19.575Z,100.00
2022-10-23T02:07:08.203Z,100.00
2022-10-23T02:09:56.676Z,100.00
2022-10-23T02:12:50.439Z,100.00
2022-10-23T02:15:42.570Z,100.00
2022-10-23T02:18:38.896Z,100.00
2022-10-23T02:21:30.657Z,100.00
2022-10-23T02:24:21.640Z,100.00
2022-10-23T02:27:13.558Z,100.00
2022-10-23T02:30:06.188Z,100.00
2022-10-23T02:32:55.984Z,100.00
2022-10-23T02:35:46.464Z,100.00
2022-10-23T02:38:37.461Z,100.00
2022-10-23T02:41:36.817Z,100.00
2022-10-23T02:44:37.472Z,100.00
2022-10-23T02:47:36.122Z,100.00
2022-10-23T02:50:30.404Z,100.00
2022-10-23T02:53:26.560Z,100.00
2022-10-23T02:56:19.225Z,100.00
2022-10-23T02:59:12.291Z,100.00
2022-10-23T03:02:04.966Z,100.00
2022-10-23T03:04:54.440Z,100.00
2022-10-23T03:07:43.400Z,100.00
2022-10-23T03:10:33.425Z,100.00
2022-10-23T03:13:21.973Z,100.00
2022-10-23T03:16:10.412Z,100.00
2022-10-23T03:18:58.918Z,100.00
2022-10-23T03:21:47.338Z,100.00
2022-10-23T03:24:35.749Z,100.00
2022-10-23T03:27:25.668Z,100.00
2022-10-23T03:30:14.327Z,100.00
2022-10-23T03:33:02.760Z,100.00
2022-10-23T03:35:51.284Z,100.00
2022-10-23T03:38:39.701Z,100.00
2022-10-23T03:41:28.186Z,100.00
2022-10-23T03:44:18.061Z,100.00
2022-10-23T03:47:06.550Z,100.00
2022-10-23T03:49:54.944Z,100.00
2022-10-23T03:52:43.779Z,100.00
2022-10-23T03:55:32.467Z,100.00
2022-10-23T03:58:20.903Z,100.00
2022-10-23T04:01:10.842Z,100.00
2022-10-23T04:03:59.299Z,100.00
2022-10-23T04:06:47.700Z,100.00
2022-10-23T04:09:36.239Z,100.00
2022-10-23T04:12:24.696Z,100.00
2022-10-23T04:15:13.099Z,100.00
2022-10-23T04:18:02.900Z,100.00
2022-10-23T04:20:52.361Z,100.00
2022-10-23T04:23:41.012Z,100.00
2022-10-23T04:26:29.454Z,100.00
2022-10-23T04:29:17.901Z,100.00
2022-10-23T04:32:07.951Z,100.00
2022-10-23T04:34:57.764Z,100.00
2022-10-23T04:37:46.343Z,100.00
2022-10-23T04:40:34.795Z,100.00
2022-10-23T04:43:23.233Z,100.00
2022-10-23T04:46:11.669Z,100.00
2022-10-23T04:49:00.099Z,100.00
2022-10-23T04:51:49.939Z,100.00
2022-10-23T04:54:38.562Z,100.00
2022-10-23T04:57:27.032Z,100.00
2022-10-23T05:00:16.625Z,100.00
2022-10-23T05:03:05.186Z,100.00
2022-10-23T05:05:54.964Z,100.00
2022-10-23T05:08:44.738Z,100.00
2022-10-23T05:11:33.131Z,100.00
2022-10-23T05:14:22.982Z,100.00
2022-10-23T05:17:14.681Z,100.00
2022-10-23T05:20:06.137Z,100.00
2022-10-23T05:22:56.519Z,100.00
2022-10-23T05:25:46.380Z,100.00
2022-10-23T05:28:34.835Z,100.00
2022-10-23T05:31:25.911Z,100.00
2022-10-23T05:34:15.238Z,100.00
2022-10-23T05:37:04.063Z,100.00
2022-10-23T05:39:52.882Z,100.00
2022-10-23T05:42:43.106Z,100.00
2022-10-23T05:45:31.762Z,100.00
2022-10-23T05:48:34.166Z,100.00
2022-10-23T05:51:23.444Z,100.00
2022-10-23T05:54:11.849Z,100.00
2022-10-23T05:57:00.269Z,100.00
2022-10-23T05:59:50.059Z,100.00
2022-10-23T06:02:38.541Z,100.00
2022-10-23T06:05:27.174Z,100.00
2022-10-23T06:08:15.587Z,100.00
2022-10-23T06:11:08.526Z,100.00
2022-10-23T06:16:51.632Z,100.00
2022-10-23T06:19:40.075Z,100.00
2022-10-23T06:22:28.493Z,100.00
2022-10-23T06:25:16.905Z,100.00
2022-10-23T06:28:05.356Z,100.00
2022-10-23T06:30:53.817Z,100.00
2022-10-23T06:33:43.774Z,100.00
2022-10-23T06:36:32.220Z,100.00
2022-10-23T06:39:22.037Z,100.00
2022-10-23T06:42:10.675Z,100.00
2022-10-23T06:45:01.143Z,100.00
2022-10-23T06:47:51.836Z,100.00
2022-10-23T06:50:41.983Z,100.00
2022-10-23T06:53:30.394Z,100.00
2022-10-23T06:56:18.778Z,100.00
2022-10-23T06:59:10.317Z,100.00
2022-10-23T07:01:58.769Z,100.00
2022-10-23T07:04:47.153Z,100.00
2022-10-23T07:07:36.919Z,100.00
2022-10-23T07:10:25.415Z,100.00
2022-10-23T07:13:13.858Z,100.00
2022-10-23T07:16:11.131Z,100.00
2022-10-23T07:19:01.228Z,100.00
2022-10-23T07:21:49.664Z,100.00
2022-10-23T07:24:40.156Z,100.00
2022-10-23T07:27:28.605Z,100.00
2022-10-23T07:30:17.317Z,100.00
2022-10-23T07:33:05.724Z,100.00
2022-10-23T07:35:54.391Z,100.00
2022-10-23T07:38:43.035Z,100.00
2022-10-23T07:41:32.876Z,100.00
2022-10-23T07:44:24.298Z,100.00
2022-10-23T07:47:15.616Z,100.00
2022-10-23T07:50:04.396Z,100.00
2022-10-23T07:52:52.857Z,100.00
2022-10-23T07:55:41.491Z,100.00
2022-10-23T07:58:31.501Z,100.00
2022-10-23T08:01:21.836Z,100.00
2022-10-23T08:04:10.861Z,100.00
2022-10-23T08:07:01.041Z,100.00
2022-10-23T08:09:49.510Z,100.00
2022-10-23T08:12:38.796Z,100.00
2022-10-23T08:15:28.572Z,100.00
2022-10-23T08:18:17.616Z,100.00
2022-10-23T08:21:06.259Z,100.00
2022-10-23T08:23:55.701Z,100.00
2022-10-23T08:26:44.110Z,100.00
2022-10-23T08:29:32.551Z,100.00
2022-10-23T08:32:22.311Z,98.97
2022-10-23T08:35:11.168Z,98.40
2022-10-23T08:37:59.616Z,95.41
2022-10-23T08:40:49.247Z,91.78
2022-10-23T08:43:40.499Z,92.38
2022-10-23T08:46:31.388Z,92.01
2022-10-23T08:49:29.191Z,90.91
2022-10-23T08:52:21.645Z,89.62
2022-10-23T08:55:17.523Z,89.13
2022-10-23T08:58:10.828Z,88.12
2022-10-23T09:00:59.456Z,86.56
2022-10-23T09:03:47.987Z,85.88
2022-10-23T09:06:40.721Z,85.66
2022-10-23T09:09:48.744Z,82.87
2022-10-23T09:12:37.703Z,82.83
2022-10-23T09:15:29.360Z,82.87
2022-10-23T09:18:18.383Z,80.81
2022-10-23T09:21:10.367Z,78.76
2022-10-23T09:24:00.144Z,77.58
2022-10-23T09:26:51.126Z,79.35
2022-10-23T09:29:48.851Z,79.71
2022-10-23T09:32:39.026Z,79.38
2022-10-23T09:35:28.944Z,79.40
2022-10-23T09:38:27.786Z,79.42
2022-10-23T09:41:20.953Z,77.67
2022-10-23T09:44:19.024Z,78.92
2022-10-23T09:47:11.165Z,77.75
2022-10-23T09:49:59.630Z,78.28
2022-10-23T09:52:52.372Z,78.71
2022-10-23T09:55:40.894Z,79.01
2022-10-23T09:58:36.372Z,79.03
2022-10-23T10:01:26.083Z,79.17
2022-10-23T10:04:14.882Z,79.57
2022-10-23T10:07:05.805Z,77.16
2022-10-23T10:09:55.604Z,76.39
2022-10-23T10:12:50.682Z,75.10
2022-10-23T10:15:46.697Z,75.67
2022-10-23T10:18:40.321Z,75.09
2022-10-23T10:21:30.071Z,75.03
2022-10-23T10:24:21.570Z,75.02
2022-10-23T10:27:18.342Z,73.84
2022-10-23T10:30:12.266Z,72.45
2022-10-23T10:33:06.470Z,71.57
2022-10-23T10:36:00.847Z,71.34
2022-10-23T10:38:51.760Z,70.08
2022-10-23T10:41:46.315Z,71.12
2022-10-23T10:44:54.773Z,70.99
2022-10-23T10:47:51.961Z,71.96
2022-10-23T10:50:45.138Z,72.92
2022-10-23T10:53:44.375Z,72.95
2022-10-23T10:56:34.985Z,73.21
2022-10-23T10:59:26.357Z,74.13
2022-10-23T11:02:25.007Z,74.96
2022-10-23T11:05:22.985Z,74.74
2022-10-23T11:08:16.060Z,72.29
2022-10-23T11:11:08.975Z,72.57
2022-10-23T11:13:57.593Z,71.80
2022-10-23T11:16:48.095Z,72.92
2022-10-23T11:19:38.943Z,74.06
2022-10-23T11:22:31.204Z,74.56
2022-10-23T11:25:47.086Z,76.13
2022-10-23T11:28:48.692Z,77.73
2022-10-23T11:31:39.917Z,76.61
2022-10-23T11:34:48.666Z,75.65
2022-10-23T11:37:37.087Z,75.77
2022-10-23T11:40:27.003Z,75.76
2022-10-23T11:43:27.260Z,74.51
2022-10-23T11:46:16.656Z,74.43
2022-10-23T11:49:06.240Z,74.55
2022-10-23T11:52:01.388Z,75.22
2022-10-23T11:54:49.895Z,76.67
2022-10-23T11:57:39.712Z,76.63
2022-10-23T12:00:31.100Z,76.02
2022-10-23T12:03:22.792Z,75.88
2022-10-23T12:06:22.809Z,76.16
2022-10-23T12:09:25.048Z,75.78
2022-10-23T12:12:26.737Z,76.71
2022-10-23T12:15:22.425Z,74.19
2022-10-23T12:18:15.800Z,74.87
2022-10-23T12:21:06.649Z,74.79
2022-10-23T12:24:10.324Z,73.92
2022-10-23T12:27:07.017Z,72.06
2022-10-23T12:30:05.188Z,71.96
2022-10-23T12:33:07.487Z,72.72
2022-10-23T12:36:28.061Z,73.43
2022-10-23T12:39:29.455Z,73.67
2022-10-23T12:42:22.437Z,74.46
2022-10-23T12:45:18.495Z,74.28
2022-10-23T12:48:16.689Z,74.03
2022-10-23T12:51:05.151Z,73.38
2022-10-23T12:53:53.717Z,73.32
2022-10-23T12:56:43.278Z,72.67
2022-10-23T12:59:38.332Z,72.99
2022-10-23T13:02:29.328Z,73.75
2022-10-23T13:05:20.982Z,74.16
2022-10-23T13:08:10.878Z,73.57
2022-10-23T13:10:59.537Z,73.09
2022-10-23T13:13:49.312Z,73.43
2022-10-23T13:16:37.733Z,73.23
2022-10-23T13:19:27.419Z,73.51
2022-10-23T13:22:21.046Z,73.95
2022-10-23T13:25:25.888Z,73.68
2022-10-23T13:28:35.793Z,74.24
2022-10-23T13:31:30.756Z,74.85
2022-10-23T13:34:30.372Z,75.52
2022-10-23T13:37:25.935Z,76.63
2022-10-23T13:40:23.405Z,77.09
2022-10-23T13:43:15.726Z,77.60
2022-10-23T13:46:04.353Z,78.07
2022-10-23T13:48:53.101Z,78.35
2022-10-23T13:51:43.286Z,78.41
2022-10-23T13:54:33.059Z,79.07
2022-10-23T13:57:21.499Z,79.62
2022-10-23T14:00:11.394Z,79.38
2022-10-23T14:02:59.865Z,80.27
2022-10-23T14:05:48.299Z,81.34
2022-10-23T14:08:36.722Z,81.78
2022-10-23T14:11:26.485Z,82.35
2022-10-23T14:14:14.888Z,83.70
2022-10-23T14:17:03.312Z,84.47
2022-10-23T14:19:51.760Z,84.73
2022-10-23T14:22:40.197Z,85.77
2022-10-23T14:25:28.676Z,86.39
2022-10-23T14:28:18.475Z,87.80
2022-10-23T14:31:08.106Z,89.13
2022-10-23T14:33:58.785Z,90.32
2022-10-23T14:36:56.889Z,90.92
2022-10-23T14:39:55.795Z,91.63
2022-10-23T14:42:44.536Z,92.30
2022-10-23T14:45:34.580Z,93.50
2022-10-23T14:48:23.030Z,94.06
2022-10-23T14:51:18.829Z,93.97
2022-10-23T14:54:08.677Z,94.79
2022-10-23T14:56:57.361Z,95.71
2022-10-23T14:59:45.809Z,96.04
2022-10-23T15:02:35.611Z,97.83
2022-10-23T15:05:24.057Z,98.40
2022-10-23T15:08:12.468Z,99.48
2022-10-23T15:11:01.466Z,100.00
2022-10-23T15:13:49.927Z,100.00
2022-10-23T15:16:41.396Z,100.00
2022-10-23T15:19:31.520Z,100.00
2022-10-23T15:22:19.972Z,100.00
2022-10-23T15:25:11.296Z,100.00
2022-10-23T15:28:01.653Z,100.00
2022-10-23T15:30:50.095Z,100.00
2022-10-23T15:33:38.870Z,100.00
2022-10-23T15:36:28.643Z,100.00
2022-10-23T15:39:18.818Z,100.00
2022-10-23T15:42:07.541Z,100.00
2022-10-23T15:44:56.112Z,100.00
2022-10-23T15:47:44.838Z,100.00
2022-10-23T15:50:34.128Z,100.00
2022-10-23T15:53:23.952Z,100.00
2022-10-23T15:56:12.371Z,100.00
2022-10-23T15:59:00.889Z,100.00
2022-10-23T16:01:50.941Z,100.00
2022-10-23T16:04:39.503Z,100.00
2022-10-23T16:07:27.984Z,100.00
2022-10-23T16:10:17.824Z,100.00
2022-10-23T16:13:06.268Z,100.00
2022-10-23T16:15:54.948Z,100.00
2022-10-23T16:18:44.573Z,100.00
2022-10-23T16:21:35.144Z,100.00
2022-10-23T16:24:23.642Z,100.00
2022-10-23T16:27:13.431Z,100.00
2022-10-23T16:30:02.005Z,100.00
2022-10-23T16:32:50.772Z,100.00
2022-10-23T16:35:39.695Z,100.00
2022-10-23T16:38:28.175Z,100.00
2022-10-23T16:41:16.783Z,100.00
2022-10-23T16:44:07.030Z,100.00
2022-10-23T16:46:55.592Z,100.00
2022-10-23T16:49:44.152Z,100.00
2022-10-23T16:52:33.269Z,100.00
2022-10-23T16:55:21.682Z,100.00
2022-10-23T16:58:10.204Z,100.00
2022-10-23T17:01:02.184Z,100.00
2022-10-23T17:03:52.468Z,100.00
2022-10-23T17:06:41.125Z,100.00
2022-10-23T17:09:31.262Z,100.00
2022-10-23T17:12:19.731Z,100.00
2022-10-23T17:15:09.885Z,100.00
2022-10-23T17:17:59.660Z,100.00
2022-10-23T17:20:56.889Z,100.00
2022-10-23T17:23:45.972Z,100.00
2022-10-23T17:26:35.037Z,100.00
2022-10-23T17:29:23.480Z,100.00
2022-10-23T17:32:11.967Z,100.00
2022-10-23T17:35:01.783Z,100.00
2022-10-23T17:37:50.475Z,100.00
2022-10-23T17:40:39.844Z,100.00
2022-10-23T17:43:28.315Z,100.00
2022-10-23T17:46:18.563Z,100.00
2022-10-23T17:49:07.149Z,100.00
2022-10-23T17:51:58.341Z,100.00
2022-10-23T17:54:46.859Z,100.00
2022-10-23T17:57:35.435Z,100.00
2022-10-23T18:00:24.167Z,100.00
2022-10-23T18:03:15.470Z,100.00
2022-10-23T18:06:10.496Z,100.00
2022-10-23T18:09:01.771Z,100.00
2022-10-23T18:11:50.741Z,100.00
2022-10-23T18:14:39.275Z,100.00
2022-10-23T18:17:27.856Z,100.00
2022-10-23T18:20:16.768Z,100.00
2022-10-23T18:23:05.247Z,100.00
2022-10-23T18:25:55.293Z,100.00
2022-10-23T18:28:44.067Z,100.00
2022-10-23T18:31:32.677Z,100.00
2022-10-23T18:34:23.243Z,100.00
2022-10-23T18:37:11.795Z,100.00
2022-10-23T18:40:00.262Z,100.00
2022-10-23T18:42:50.467Z,100.00
2022-10-23T18:45:42.795Z,100.00
2022-10-23T18:48:31.531Z,100.00
2022-10-23T18:51:21.847Z,100.00
2022-10-23T18:54:13.980Z,100.00
2022-10-23T18:57:02.423Z,100.00
2022-10-23T18:59:53.166Z,100.00
2022-10-23T19:02:41.671Z,100.00
2022-10-23T19:05:30.178Z,100.00
2022-10-23T19:08:18.882Z,100.00
2022-10-23T19:11:08.028Z,100.00
2022-10-23T19:13:56.602Z,100.00
2022-10-23T19:16:53.306Z,100.00
2022-10-23T19:19:43.747Z,100.00
2022-10-23T19:22:32.761Z,100.00
2022-10-23T19:25:25.223Z,100.00
2022-10-23T19:28:13.731Z,100.00
2022-10-23T19:31:02.324Z,100.00
2022-10-23T19:33:52.162Z,100.00
2022-10-23T19:36:40.642Z,100.00
2022-10-23T19:39:29.245Z,100.00
2022-10-23T19:42:17.777Z,100.00
2022-10-23T19:45:07.508Z,100.00
2022-10-23T19:47:56.111Z,100.00
2022-10-23T19:50:45.999Z,100.00
2022-10-23T19:53:34.480Z,100.00
2022-10-23T19:56:23.292Z,100.00
2022-10-23T19:59:12.919Z,100.00
2022-10-23T20:02:01.974Z,100.00
2022-10-23T20:04:50.583Z,100.00
2022-10-23T20:07:40.367Z,100.00
2022-10-23T20:10:28.835Z,100.00
2022-10-23T20:13:20.715Z,100.00
2022-10-23T20:16:09.537Z,100.00
2022-10-23T20:18:58.732Z,100.00
2022-10-23T20:21:48.956Z,100.00
2022-10-23T20:24:42.179Z,100.00
2022-10-23T20:27:30.649Z,100.00
2022-10-23T20:30:19.150Z,100.00
2022-10-23T20:33:07.724Z,100.00
2022-10-23T20:38:49.501Z,100.00
2022-10-23T20:41:39.502Z,100.00
2022-10-23T20:44:27.992Z,100.00
2022-10-23T20:47:16.461Z,100.00
2022-10-23T20:50:05.338Z,100.00
2022-10-23T20:52:53.826Z,100.00
2022-10-23T20:55:43.337Z,100.00
2022-10-23T20:58:33.143Z,100.00
2022-10-23T21:01:21.719Z,100.00
2022-10-23T21:04:12.529Z,100.00
2022-10-23T21:07:16.420Z,100.00
2022-10-23T21:10:06.207Z,100.00
2022-10-23T21:12:54.657Z,100.00
2022-10-23T21:15:44.448Z,100.00
2022-10-23T21:18:45.458Z,100.00
2022-10-23T21:21:35.758Z,100.00
2022-10-23T21:24:24.976Z,100.00
2022-10-23T21:27:15.078Z,100.00
2022-10-23T21:30:03.542Z,100.00
2022-10-23T21:32:53.328Z,100.00
2022-10-23T21:35:52.219Z,100.00
2022-10-23T21:38:47.735Z,100.00
2022-10-23T21:41:36.166Z,100.00
2022-10-23T21:44:24.628Z,100.00
2022-10-23T21:47:13.052Z,100.00
2022-10-23T21:50:02.831Z,100.00
2022-10-23T21:52:52.862Z,100.00
2022-10-23T21:55:41.349Z,100.00
2022-10-23T21:58:29.850Z,100.00
2022-10-23T22:01:18.461Z,100.00
2022-10-23T22:04:07.314Z,100.00
2022-10-23T22:06:59.280Z,100.00
2022-10-23T22:09:47.900Z,100.00
2022-10-23T22:12:36.420Z,100.00
2022-10-23T22:15:24.897Z,100.00
2022-10-23T22:18:13.344Z,100.00
2022-10-23T22:21:02.078Z,100.00
2022-10-23T22:23:54.601Z,100.00
2022-10-23T22:26:45.243Z,100.00
2022-10-23T22:29:33.750Z,100.00
2022-10-23T22:35:15.615Z,100.00
2022-10-23T22:38:04.039Z,100.00
2022-10-23T22:40:53.829Z,100.00
2022-10-23T22:43:42.267Z,100.00
2022-10-23T22:46:31.056Z,100.00
2022-10-23T22:49:19.493Z,100.00
2022-10-23T22:52:07.896Z,100.00
2022-10-23T22:54:56.331Z,100.00
2022-10-23T22:57:46.411Z,100.00
2022-10-23T23:00:35.504Z,100.00
2022-10-23T23:03:24.908Z,100.00
2022-10-23T23:06:13.564Z,100.00
2022-10-23T23:09:02.086Z,100.00
2022-10-23T23:11:52.545Z,100.00
2022-10-23T23:14:43.392Z,100.00
2022-10-23T23:17:31.841Z,100.00
2022-10-23T23:20:20.366Z,100.00
2022-10-23T23:23:08.852Z,100.00
2022-10-23T23:25:57.296Z,100.00
2022-10-23T23:28:47.060Z,100.00
2022-10-23T23:31:36.821Z,100.00
2022-10-23T23:34:25.314Z,100.00
2022-10-23T23:37:13.716Z,100.00
2022-10-23T23:40:02.107Z,100.00
2022-10-23T23:42:50.513Z,100.00
2022-10-23T23:45:38.917Z,100.00
2022-10-23T23:48:28.755Z,100.00
2022-10-23T23:51:17.592Z,100.00
2022-10-23T23:54:06.048Z,100.00
2022-10-23T23:56:57.296Z,100.00
2022-10-23T23:59:45.710Z,100.00
